Terminal Aerodrome Forecast
Issued by NWS

Home | Current Version | Previous Version | Text Only | Print | Product List | Glossary On
Versions: 1 2 3 4 5 6 7 8 9 10 11 12 13 14
000
FTUS41 KPHI 232339
TAFMIV
TAF
KMIV 232339Z 2400/2424 17003KT P6SM SCT250
     FM240700 19005KT 4SM BR SCT005
     FM240900 19004KT 2SM BR BKN200
      TEMPO 2409/2412 1/2SM FG OVC003
     FM241300 19004KT 1 1/2SM BR BKN005
     FM241400 18006KT 3SM BR BKN010
     FM241600 18009KT P6SM SCT035=

USA.gov is the U.S. government's official web portal to all federal, state and local government web resources and services.